Time;durP1;ratioP1;P1;durP2;ratioP2;P2;SDS_P1;SDS_P2;PMS_P1;PMS_P2;Temp;Humidity;BMP_temperature;BMP_pressure;BME280_temperature;BME280_humidity;BME280_pressure;Samples;Min_cycle;Max_cycle;Signal;HPM_P1;HPM_P2
2023/12/20 00:02:05;;;;;;;7.20;1.70;;;6.10;99.90;;;;;;5010611;28;20211;-69
2023/12/20 00:04:32;;;;;;;4.50;1.13;;;6.10;99.90;;;;;;4972607;28;20607;-69
2023/12/20 00:06:59;;;;;;;10.17;1.87;;;6.10;99.90;;;;;;5000420;28;20329;-69
2023/12/20 00:09:26;;;;;;;4.23;1.17;;;6.10;99.90;;;;;;5009480;28;20969;-69
2023/12/20 00:11:52;;;;;;;9.63;1.80;;;6.10;99.90;;;;;;4999119;28;20497;-69
2023/12/20 00:14:21;;;;;;;13.23;2.13;;;6.10;99.90;;;;;;5011285;28;20894;-69
2023/12/20 00:16:48;;;;;;;9.50;1.80;;;6.10;99.90;;;;;;4995167;28;20380;-69
2023/12/20 00:19:15;;;;;;;8.07;1.60;;;6.00;99.90;;;;;;4972892;28;20205;-69
2023/12/20 00:21:42;;;;;;;2.27;1.10;;;6.00;99.90;;;;;;5011949;28;20202;-69
2023/12/20 00:24:09;;;;;;;5.73;1.30;;;6.10;99.90;;;;;;5006843;28;20243;-69
2023/12/20 00:26:35;;;;;;;6.73;1.80;;;6.00;99.90;;;;;;5009718;28;20232;-69
2023/12/20 00:29:02;;;;;;;9.20;1.90;;;6.00;99.90;;;;;;5014554;28;20394;-69
2023/12/20 00:31:31;;;;;;;11.23;1.60;;;5.90;99.90;;;;;;5013711;28;20208;-69
2023/12/20 00:33:57;;;;;;;4.40;1.03;;;5.90;99.90;;;;;;4960648;28;20874;-69
2023/12/20 00:36:24;;;;;;;6.73;1.43;;;5.90;99.90;;;;;;5011960;28;20206;-69
2023/12/20 00:38:51;;;;;;;13.37;2.40;;;5.90;99.90;;;;;;4992809;28;20772;-69
2023/12/20 00:41:18;;;;;;;7.40;1.17;;;5.90;99.90;;;;;;5013146;28;20364;-69
2023/12/20 00:43:45;;;;;;;7.33;1.27;;;5.90;99.90;;;;;;5012881;28;20197;-69
2023/12/20 00:46:12;;;;;;;6.97;1.97;;;5.90;99.90;;;;;;5013402;28;20229;-69
2023/12/20 00:48:41;;;;;;;6.60;1.83;;;5.80;99.90;;;;;;5000471;28;20213;-69
2023/12/20 00:51:09;;;;;;;7.77;1.70;;;5.90;99.90;;;;;;4978633;28;20214;-70
2023/12/20 00:53:36;;;;;;;11.70;1.87;;;6.50;99.90;;;;;;5002512;28;20205;-69
2023/12/20 00:56:03;;;;;;;12.03;2.07;;;5.80;99.90;;;;;;4999441;28;20205;-69
2023/12/20 00:58:29;;;;;;;4.93;1.60;;;5.80;99.90;;;;;;5005107;28;20357;-69
2023/12/20 01:00:58;;;;;;;13.27;1.77;;;5.80;99.90;;;;;;4996952;28;20201;-68
2023/12/20 01:03:24;;;;;;;6.43;1.23;;;5.80;99.90;;;;;;4998827;28;20201;-68
2023/12/20 01:05:53;;;;;;;6.03;1.23;;;5.90;99.90;;;;;;4978101;28;20324;-68
2023/12/20 01:08:19;;;;;;;5.03;1.23;;;5.70;99.90;;;;;;5009494;28;20204;-68
2023/12/20 01:10:46;;;;;;;4.87;1.67;;;5.70;99.90;;;;;;4998066;28;20577;-68
2023/12/20 01:13:13;;;;;;;11.47;1.60;;;5.70;99.90;;;;;;5010590;28;20232;-68
2023/12/20 01:15:40;;;;;;;10.37;1.50;;;5.90;99.90;;;;;;5015284;28;20190;-68
2023/12/20 01:18:07;;;;;;;14.07;2.20;;;5.70;99.90;;;;;;5015531;28;20206;-69
2023/12/20 01:20:34;;;;;;;6.17;1.47;;;5.70;99.90;;;;;;4995064;28;20289;-68
2023/12/20 01:23:02;;;;;;;4.03;1.20;;;5.80;99.90;;;;;;4996927;28;20547;-68
2023/12/20 01:25:29;;;;;;;6.93;1.07;;;6.40;99.90;;;;;;4996146;28;20205;-68
2023/12/20 01:27:56;;;;;;;4.70;1.57;;;5.70;99.90;;;;;;4994872;28;20267;-69
2023/12/20 01:30:24;;;;;;;10.50;1.80;;;5.60;99.90;;;;;;5016943;28;20666;-68
2023/12/20 01:32:51;;;;;;;3.10;1.20;;;5.70;99.90;;;;;;5016223;28;20772;-68
2023/12/20 01:35:17;;;;;;;11.50;2.07;;;6.30;99.90;;;;;;5005789;28;20215;-68
2023/12/20 01:37:44;;;;;;;7.57;1.10;;;5.70;99.90;;;;;;4979632;28;20232;-68
2023/12/20 01:40:13;;;;;;;10.00;1.73;;;5.90;99.90;;;;;;5009243;28;20209;-68
2023/12/20 01:42:40;;;;;;;10.07;1.30;;;5.70;99.90;;;;;;5000802;28;20754;-69
2023/12/20 01:45:07;;;;;;;16.70;2.23;;;5.70;99.90;;;;;;5012120;28;20232;-68
2023/12/20 01:47:34;;;;;;;10.20;1.50;;;5.70;99.90;;;;;;5015051;28;20237;-68
2023/12/20 01:50:03;;;;;;;7.47;1.93;;;5.70;99.90;;;;;;5005305;28;20204;-68
2023/12/20 01:52:30;;;;;;;8.40;1.20;;;5.70;99.90;;;;;;4983353;28;20268;-68
2023/12/20 01:55:02;;;;;;;8.97;1.77;;;5.60;99.90;;;;;;5001741;28;20424;-69
2023/12/20 01:57:31;;;;;;;7.03;1.57;;;5.70;99.90;;;;;;5001674;28;20201;-68
2023/12/20 01:59:58;;;;;;;5.30;1.20;;;5.70;99.90;;;;;;5002675;28;20400;-68
2023/12/20 02:02:27;;;;;;;4.87;0.93;;;5.70;99.90;;;;;;5011842;28;20547;-69
2023/12/20 02:04:54;;;;;;;9.97;1.00;;;5.70;99.90;;;;;;5005797;28;20206;-68
2023/12/20 02:07:21;;;;;;;4.30;1.23;;;5.70;99.90;;;;;;4965796;28;20229;-69
2023/12/20 02:09:48;;;;;;;7.60;1.07;;;5.70;99.90;;;;;;5000605;28;20581;-68
2023/12/20 02:12:15;;;;;;;8.93;1.70;;;5.80;99.90;;;;;;5004398;28;20668;-69
2023/12/20 02:14:43;;;;;;;10.57;1.93;;;5.80;99.90;;;;;;5007759;28;20227;-68
2023/12/20 02:17:10;;;;;;;8.10;1.73;;;5.80;99.90;;;;;;5011290;28;20917;-68
2023/12/20 02:19:37;;;;;;;6.03;1.40;;;5.80;99.90;;;;;;5019377;28;20224;-69
2023/12/20 02:22:10;;;;;;;10.63;1.80;;;5.80;99.90;;;;;;4974915;28;20211;-69
2023/12/20 02:24:36;;;;;;;6.40;1.30;;;5.80;99.90;;;;;;5016376;28;20197;-68
2023/12/20 02:27:05;;;;;;;7.27;1.67;;;5.80;99.90;;;;;;4993514;28;20239;-68
2023/12/20 02:29:33;;;;;;;14.40;1.50;;;5.80;99.90;;;;;;5007606;28;21184;-68
2023/12/20 02:32:00;;;;;;;6.43;2.03;;;5.90;99.90;;;;;;5012725;28;20209;-68
2023/12/20 02:34:27;;;;;;;8.30;1.40;;;5.90;99.90;;;;;;5014254;28;20201;-68
2023/12/20 02:36:54;;;;;;;9.03;1.20;;;6.00;99.90;;;;;;5012293;28;20202;-68
2023/12/20 02:39:24;;;;;;;3.03;1.07;;;5.90;99.90;;;;;;4970043;28;20201;-69
2023/12/20 02:41:51;;;;;;;6.23;1.63;;;5.90;99.90;;;;;;4986226;28;20411;-69
2023/12/20 02:44:18;;;;;;;4.07;1.47;;;5.90;99.90;;;;;;5000889;28;20309;-68
2023/12/20 02:46:44;;;;;;;6.83;1.63;;;6.00;99.90;;;;;;4994753;28;20232;-69
2023/12/20 02:49:11;;;;;;;14.63;1.83;;;6.00;99.90;;;;;;5010860;28;20292;-68
2023/12/20 02:51:39;;;;;;;9.40;1.43;;;5.90;99.90;;;;;;5015645;28;20573;-68
2023/12/20 02:54:06;;;;;;;10.90;1.87;;;5.90;99.90;;;;;;4969709;28;20785;-68
2023/12/20 02:56:34;;;;;;;8.93;1.40;;;6.00;99.90;;;;;;5011162;28;20194;-68
2023/12/20 02:59:01;;;;;;;13.07;1.67;;;6.00;99.90;;;;;;4996443;28;20215;-68
2023/12/20 03:01:27;;;;;;;7.23;1.80;;;6.30;99.90;;;;;;4994165;28;20216;-68
2023/12/20 03:03:54;;;;;;;5.17;1.33;;;5.90;99.90;;;;;;5008454;28;20347;-69
2023/12/20 03:06:21;;;;;;;4.97;1.30;;;6.00;99.90;;;;;;5007011;28;20208;-68
2023/12/20 03:08:48;;;;;;;7.27;1.67;;;6.00;99.90;;;;;;5001841;28;20208;-69
2023/12/20 03:11:15;;;;;;;4.00;1.33;;;6.00;99.90;;;;;;4974982;28;20206;-68
2023/12/20 03:13:43;;;;;;;5.60;1.50;;;6.00;99.90;;;;;;5006029;28;20222;-69
2023/12/20 03:16:10;;;;;;;6.97;1.43;;;6.00;99.90;;;;;;5013071;28;20197;-68
2023/12/20 03:18:37;;;;;;;4.97;1.27;;;6.10;99.90;;;;;;4994804;28;20202;-69
2023/12/20 03:21:04;;;;;;;8.87;1.37;;;6.00;99.90;;;;;;5008477;28;20202;-68
2023/12/20 03:23:32;;;;;;;7.57;1.60;;;6.00;99.90;;;;;;5008300;28;20204;-68
2023/12/20 03:25:59;;;;;;;4.13;0.97;;;6.10;99.90;;;;;;4974860;28;20221;-68
2023/12/20 03:28:26;;;;;;;16.07;2.07;;;6.00;99.90;;;;;;5011559;28;20233;-69
2023/12/20 03:30:54;;;;;;;6.00;2.13;;;6.30;99.90;;;;;;4999976;28;20263;-68
2023/12/20 03:33:21;;;;;;;9.87;1.53;;;6.00;99.90;;;;;;5004164;28;20204;-69
2023/12/20 03:35:48;;;;;;;8.33;1.67;;;6.10;99.90;;;;;;4995748;28;20201;-68
2023/12/20 03:38:14;;;;;;;7.37;1.57;;;6.00;99.90;;;;;;5016906;28;20527;-69
2023/12/20 03:40:42;;;;;;;12.30;1.90;;;;;;;;;;4969222;28;20209;-68
2023/12/20 03:43:08;;;;;;;5.63;1.57;;;6.00;99.90;;;;;;5011436;28;21000;-68
2023/12/20 03:45:35;;;;;;;8.13;1.97;;;6.00;99.90;;;;;;5002443;28;20225;-68
2023/12/20 03:48:04;;;;;;;14.63;1.87;;;6.80;99.90;;;;;;5000609;28;20240;-68
2023/12/20 03:50:31;;;;;;;5.07;1.53;;;5.90;99.90;;;;;;5004840;28;21459;-68
2023/12/20 03:52:58;;;;;;;9.43;2.00;;;6.00;99.90;;;;;;5010101;28;20618;-69
2023/12/20 03:55:25;;;;;;;5.60;1.87;;;6.10;99.90;;;;;;5000702;28;20649;-69
2023/12/20 03:57:51;;;;;;;11.03;2.07;;;6.10;99.90;;;;;;4979508;28;20213;-69
2023/12/20 04:00:19;;;;;;;10.00;1.70;;;6.10;99.90;;;;;;5002932;28;20588;-68
2023/12/20 04:02:45;;;;;;;12.20;1.63;;;3.40;99.90;;;;;;5002156;28;20665;-69
2023/12/20 04:05:14;;;;;;;10.90;2.30;;;6.10;99.90;;;;;;5008476;28;20204;-69
2023/12/20 04:07:40;;;;;;;9.97;2.00;;;6.20;99.90;;;;;;5015723;28;20714;-69
2023/12/20 04:10:09;;;;;;;14.10;2.00;;;6.10;99.90;;;;;;5003013;28;20209;-69
2023/12/20 04:12:35;;;;;;;5.97;1.30;;;6.20;99.90;;;;;;4985271;28;20207;-68
2023/12/20 04:15:08;;;;;;;13.13;2.40;;;6.10;99.90;;;;;;4999584;28;20201;-68
2023/12/20 04:17:35;;;;;;;9.00;1.83;;;6.00;99.90;;;;;;5010618;28;20592;-68
2023/12/20 04:20:03;;;;;;;5.93;1.87;;;6.30;99.90;;;;;;5012736;28;20201;-68
2023/12/20 04:22:31;;;;;;;9.37;1.90;;;6.20;99.90;;;;;;5012886;28;20252;-68
2023/12/20 04:24:58;;;;;;;16.83;1.80;;;6.20;99.90;;;;;;5018023;28;20201;-69
2023/12/20 04:27:24;;;;;;;6.13;1.70;;;6.30;99.90;;;;;;4971546;28;20228;-69
2023/12/20 04:29:51;;;;;;;8.40;1.40;;;6.20;99.90;;;;;;5018958;28;20201;-69
2023/12/20 04:32:18;;;;;;;11.97;2.00;;;6.10;99.90;;;;;;4996444;28;20637;-68
2023/12/20 04:34:45;;;;;;;6.97;1.40;;;6.00;99.90;;;;;;5019290;28;20208;-68
2023/12/20 04:37:12;;;;;;;3.47;1.13;;;6.10;99.90;;;;;;5003262;28;20871;-69
2023/12/20 04:39:41;;;;;;;14.90;2.10;;;6.10;99.90;;;;;;5000085;28;20693;-68
2023/12/20 04:42:08;;;;;;;8.60;1.67;;;6.10;99.90;;;;;;5008592;28;20728;-68
2023/12/20 04:44:35;;;;;;;5.60;1.50;;;6.10;99.90;;;;;;4982777;28;20225;-68
2023/12/20 04:47:02;;;;;;;12.87;1.63;;;6.10;99.90;;;;;;5002181;28;20222;-68
2023/12/20 04:49:29;;;;;;;6.53;1.73;;;6.20;99.90;;;;;;5002651;28;20384;-68
2023/12/20 04:51:56;;;;;;;15.93;2.63;;;6.10;99.90;;;;;;4986524;28;20213;-69
2023/12/20 04:54:23;;;;;;;8.80;1.67;;;6.10;99.90;;;;;;5013252;28;20205;-68
2023/12/20 04:56:51;;;;;;;9.10;1.60;;;6.20;99.90;;;;;;4985158;28;20706;-69
2023/12/20 04:59:18;;;;;;;11.10;1.43;;;6.10;99.90;;;;;;4981237;28;20224;-68
2023/12/20 05:01:45;;;;;;;10.40;2.50;;;6.10;99.90;;;;;;4996983;28;20366;-68
2023/12/20 05:04:11;;;;;;;6.57;1.57;;;6.10;99.90;;;;;;5008538;28;20205;-68
2023/12/20 05:06:38;;;;;;;13.17;1.67;;;6.10;99.90;;;;;;5004386;28;20997;-68
2023/12/20 05:09:05;;;;;;;7.50;1.90;;;6.10;99.90;;;;;;5009633;28;20234;-68
2023/12/20 05:11:32;;;;;;;14.27;2.10;;;6.10;99.90;;;;;;5013062;28;20197;-68
2023/12/20 05:14:00;;;;;;;9.87;2.47;;;6.10;99.90;;;;;;5006268;28;20679;-68
2023/12/20 05:16:27;;;;;;;10.73;1.90;;;7.20;99.90;;;;;;4972057;28;20216;-69
2023/12/20 05:18:54;;;;;;;13.17;1.90;;;;;;;;;;4989162;28;20231;-69
2023/12/20 05:21:21;;;;;;;15.23;2.30;;;6.10;99.90;;;;;;5007591;28;20197;-68
2023/12/20 05:23:48;;;;;;;8.37;1.97;;;6.20;99.90;;;;;;4974132;28;20198;-69
2023/12/20 05:26:15;;;;;;;11.50;2.33;;;6.30;99.90;;;;;;5011794;28;20205;-68
2023/12/20 05:28:41;;;;;;;17.77;3.10;;;6.10;99.90;;;;;;4994059;28;20331;-69
2023/12/20 05:31:10;;;;;;;12.50;1.97;;;6.20;99.90;;;;;;4983221;28;20216;-68
2023/12/20 05:33:37;;;;;;;12.47;2.33;;;6.20;99.90;;;;;;4999912;28;20292;-69
2023/12/20 05:36:04;;;;;;;10.43;2.20;;;6.40;99.90;;;;;;5005769;28;20209;-69
2023/12/20 05:38:31;;;;;;;10.20;1.90;;;6.20;99.90;;;;;;4998627;28;20315;-68
2023/12/20 05:40:58;;;;;;;7.90;2.27;;;6.30;99.90;;;;;;5007114;28;20211;-69
2023/12/20 05:43:24;;;;;;;8.87;2.27;;;6.30;99.90;;;;;;4998554;28;20738;-69
2023/12/20 05:45:51;;;;;;;18.40;2.20;;;6.30;99.90;;;;;;4980571;28;20244;-69
2023/12/20 05:48:20;;;;;;;6.93;1.63;;;6.20;99.90;;;;;;5011491;28;20221;-69
2023/12/20 05:50:46;;;;;;;8.87;2.20;;;6.20;99.90;;;;;;4982009;28;20448;-69
2023/12/20 05:53:13;;;;;;;6.10;1.57;;;6.20;99.90;;;;;;5001229;28;20198;-69
2023/12/20 05:55:40;;;;;;;17.40;1.90;;;6.20;99.90;;;;;;5001584;28;20702;-69
2023/12/20 05:58:07;;;;;;;11.83;2.43;;;6.20;99.90;;;;;;5009429;28;21006;-69
2023/12/20 06:00:34;;;;;;;12.90;2.70;;;;;;;;;;4974315;28;20222;-69
2023/12/20 06:03:01;;;;;;;9.23;2.27;;;6.20;99.90;;;;;;4986297;28;20240;-69
2023/12/20 06:05:29;;;;;;;11.97;2.03;;;6.30;99.90;;;;;;4995221;28;20206;-69
2023/12/20 06:08:01;;;;;;;11.00;2.07;;;6.30;99.90;;;;;;4998249;28;20237;-68
2023/12/20 06:10:27;;;;;;;12.30;2.40;;;6.30;99.90;;;;;;4989916;28;20320;-68
2023/12/20 06:12:56;;;;;;;18.73;2.50;;;6.20;99.90;;;;;;5003090;28;20248;-66
2023/12/20 06:15:23;;;;;;;8.83;2.20;;;6.20;99.90;;;;;;4982148;28;20226;-68
2023/12/20 06:17:49;;;;;;;13.33;2.57;;;6.20;99.90;;;;;;4966033;28;20232;-68
2023/12/20 06:20:16;;;;;;;11.27;2.47;;;6.10;99.90;;;;;;4988469;28;20221;-68
2023/12/20 06:22:45;;;;;;;13.50;2.30;;;6.20;99.90;;;;;;4995931;28;20221;-68
2023/12/20 06:25:11;;;;;;;14.03;2.33;;;6.90;99.90;;;;;;4996541;28;20634;-68
2023/12/20 06:27:38;;;;;;;15.27;3.03;;;6.30;99.90;;;;;;5006190;28;20419;-69
2023/12/20 06:30:06;;;;;;;13.63;2.37;;;6.30;99.90;;;;;;4996175;28;20221;-68
2023/12/20 06:32:34;;;;;;;17.10;2.83;;;6.30;99.90;;;;;;4967343;28;20212;-68
2023/12/20 06:35:01;;;;;;;14.00;2.30;;;6.20;99.90;;;;;;4991780;28;20202;-69
2023/12/20 06:37:27;;;;;;;12.17;2.80;;;6.30;99.90;;;;;;5016218;28;20208;-68
2023/12/20 06:39:56;;;;;;;16.07;2.53;;;5.50;99.90;;;;;;5003352;28;20202;-68
2023/12/20 06:42:23;;;;;;;17.90;3.10;;;6.30;99.90;;;;;;5012354;28;20223;-68
2023/12/20 06:44:50;;;;;;;14.23;2.93;;;6.40;99.90;;;;;;5015436;28;20225;-68
2023/12/20 06:47:17;;;;;;;19.87;2.30;;;6.40;99.90;;;;;;4982414;28;20221;-68
2023/12/20 06:49:44;;;;;;;11.97;3.00;;;7.30;99.90;;;;;;5006342;28;20714;-68
2023/12/20 06:52:11;;;;;;;10.87;2.13;;;6.40;99.90;;;;;;5021472;28;20213;-68
2023/12/20 06:54:38;;;;;;;13.90;2.67;;;6.40;99.90;;;;;;5008641;28;21965;-68
2023/12/20 06:57:07;;;;;;;19.80;3.10;;;6.40;99.90;;;;;;4992121;28;20248;-68
2023/12/20 06:59:34;;;;;;;17.43;3.00;;;6.60;99.90;;;;;;5013846;28;20213;-68
2023/12/20 07:02:00;;;;;;;11.87;2.37;;;6.60;99.90;;;;;;4986493;28;20646;-69
2023/12/20 07:04:27;;;;;;;8.60;2.00;;;6.50;99.90;;;;;;4980254;28;20221;-68
2023/12/20 07:06:57;;;;;;;9.97;2.27;;;6.50;99.90;;;;;;4991817;28;20228;-68
2023/12/20 07:09:24;;;;;;;19.87;3.23;;;6.50;99.90;;;;;;5016413;28;20275;-68
2023/12/20 07:11:50;;;;;;;11.30;2.70;;;6.50;99.90;;;;;;5005964;28;20848;-69
2023/12/20 07:14:19;;;;;;;11.20;3.07;;;6.50;99.90;;;;;;5004047;28;20232;-69
2023/12/20 07:16:46;;;;;;;10.47;2.47;;;6.50;99.90;;;;;;5006797;28;20307;-69
2023/12/20 07:19:13;;;;;;;14.20;2.87;;;6.50;99.90;;;;;;4979185;28;20217;-69
2023/12/20 07:21:39;;;;;;;13.20;2.40;;;6.50;99.90;;;;;;4990417;28;21825;-69
2023/12/20 07:24:06;;;;;;;12.53;3.30;;;6.50;99.90;;;;;;5017411;28;20221;-69
2023/12/20 07:26:34;;;;;;;8.40;2.50;;;6.50;99.90;;;;;;4998385;28;20231;-69
2023/12/20 07:29:00;;;;;;;11.13;2.07;;;6.50;99.90;;;;;;4994131;28;20229;-69
2023/12/20 07:31:28;;;;;;;14.10;2.33;;;6.50;99.90;;;;;;5023046;28;20202;-69
2023/12/20 07:33:55;;;;;;;12.60;2.80;;;6.60;99.90;;;;;;4986506;28;20248;-70
2023/12/20 07:36:22;;;;;;;14.80;2.33;;;6.60;99.90;;;;;;5008344;28;20209;-68
2023/12/20 07:38:49;;;;;;;19.77;3.13;;;6.60;99.90;;;;;;5025340;28;20209;-69
2023/12/20 07:41:17;;;;;;;16.63;2.83;;;6.60;99.90;;;;;;5013307;28;20201;-69
2023/12/20 07:43:43;;;;;;;14.63;3.40;;;6.60;99.90;;;;;;5023081;28;20201;-69
2023/12/20 07:46:10;;;;;;;15.97;3.43;;;6.60;99.90;;;;;;5022310;28;20268;-69
2023/12/20 07:48:39;;;;;;;9.57;3.43;;;6.70;99.90;;;;;;4987399;28;20229;-69
2023/12/20 07:51:07;;;;;;;13.27;3.40;;;6.70;99.90;;;;;;5021608;28;20405;-69
2023/12/20 07:53:34;;;;;;;16.20;3.43;;;6.70;99.90;;;;;;5009319;28;20209;-69
2023/12/20 07:56:01;;;;;;;15.10;3.73;;;6.60;99.90;;;;;;5012045;28;20209;-69
2023/12/20 07:58:29;;;;;;;11.90;2.27;;;6.40;99.90;;;;;;5023527;28;20210;-69
2023/12/20 08:00:56;;;;;;;13.37;3.37;;;5.80;99.90;;;;;;5023667;28;20677;-69
2023/12/20 08:03:23;;;;;;;13.03;2.60;;;7.20;99.90;;;;;;5021149;28;20194;-69
2023/12/20 08:05:51;;;;;;;15.57;2.67;;;6.70;99.90;;;;;;4969848;28;20351;-69
2023/12/20 08:08:18;;;;;;;17.67;3.20;;;6.70;99.90;;;;;;5010586;28;20228;-69
2023/12/20 08:10:45;;;;;;;11.27;2.63;;;6.70;99.90;;;;;;5011283;28;20194;-69
2023/12/20 08:13:12;;;;;;;10.43;2.70;;;6.70;99.90;;;;;;5021324;28;20743;-69
2023/12/20 08:15:39;;;;;;;8.50;2.53;;;6.70;99.90;;;;;;5017160;28;20616;-69
2023/12/20 08:18:06;;;;;;;17.23;2.60;;;6.70;99.90;;;;;;5011687;28;20218;-69
2023/12/20 08:20:33;;;;;;;13.93;2.53;;;6.70;99.90;;;;;;4973780;28;20210;-68
2023/12/20 08:23:01;;;;;;;9.73;2.47;;;;;;;;;;5007133;28;20217;-69
2023/12/20 08:25:28;;;;;;;11.33;2.47;;;6.80;99.90;;;;;;4997844;28;20225;-69
2023/12/20 08:27:55;;;;;;;14.63;2.67;;;6.80;99.90;;;;;;4993111;28;20747;-69
2023/12/20 08:30:22;;;;;;;17.73;2.67;;;6.80;99.90;;;;;;5020051;28;20224;-69
2023/12/20 08:32:49;;;;;;;15.50;2.87;;;6.80;99.90;;;;;;5011099;28;20727;-69
2023/12/20 08:35:16;;;;;;;12.43;2.40;;;6.80;99.90;;;;;;5016159;28;20720;-69
2023/12/20 08:37:42;;;;;;;14.37;2.77;;;6.80;99.90;;;;;;4976157;28;20225;-69
2023/12/20 08:40:11;;;;;;;8.83;2.53;;;6.80;99.90;;;;;;5000387;28;20225;-69
2023/12/20 08:42:38;;;;;;;14.17;2.23;;;6.80;99.90;;;;;;4991751;28;20884;-69
2023/12/20 08:45:06;;;;;;;12.17;2.07;;;6.40;99.90;;;;;;5012778;28;20415;-69
2023/12/20 08:47:33;;;;;;;13.83;2.47;;;6.80;99.90;;;;;;5016205;28;20205;-69
2023/12/20 08:50:01;;;;;;;9.23;2.63;;;6.80;99.90;;;;;;5016108;28;20442;-69
2023/12/20 08:52:29;;;;;;;21.97;3.50;;;6.80;99.90;;;;;;4976252;28;20225;-69
2023/12/20 08:54:56;;;;;;;15.80;2.77;;;6.70;99.90;;;;;;4995940;28;22544;-69
2023/12/20 08:57:25;;;;;;;13.07;3.50;;;6.90;99.90;;;;;;5008318;28;20221;-69
2023/12/20 08:59:52;;;;;;;16.63;2.87;;;6.90;99.90;;;;;;5011981;28;20212;-69
2023/12/20 09:02:18;;;;;;;11.23;3.10;;;6.90;99.90;;;;;;4999243;28;20223;-68
2023/12/20 09:04:45;;;;;;;15.23;2.83;;;6.90;99.90;;;;;;5015780;28;20194;-69
2023/12/20 09:07:23;;;;;;;32.17;2.97;;;6.90;99.90;;;;;;4976732;28;20209;-69
2023/12/20 09:09:49;;;;;;;8.17;1.20;;;6.50;99.90;;;;;;5006285;28;20228;-69
2023/12/20 09:12:18;;;;;;;3.03;1.00;;;6.00;99.90;;;;;;5010040;28;20233;-69
2023/12/20 09:14:46;;;;;;;2.57;0.80;;;6.00;99.90;;;;;;5021189;28;20209;-68
2023/12/20 09:17:13;;;;;;;1.63;0.57;;;6.00;99.90;;;;;;5022737;28;21122;-69
2023/12/20 09:19:40;;;;;;;4.63;1.07;;;6.40;99.90;;;;;;5016182;28;20228;-68
2023/12/20 09:22:07;;;;;;;1.63;0.77;;;5.90;99.90;;;;;;4986386;28;22137;-69
2023/12/20 09:24:34;;;;;;;4.40;1.43;;;5.90;99.90;;;;;;5019416;28;20213;-69
2023/12/20 09:27:01;;;;;;;3.80;0.87;;;6.00;99.90;;;;;;5009882;28;20198;-70
2023/12/20 09:29:28;;;;;;;2.73;1.00;;;6.00;99.90;;;;;;5005520;28;20222;-69
2023/12/20 09:31:57;;;;;;;4.10;1.20;;;6.10;99.90;;;;;;5024459;28;20217;-69
2023/12/20 09:34:25;;;;;;;4.87;1.27;;;6.10;99.90;;;;;;5023038;28;20347;-69
2023/12/20 09:36:52;;;;;;;5.43;1.37;;;6.20;99.90;;;;;;4969330;28;20225;-69
2023/12/20 09:39:20;;;;;;;2.13;0.80;;;6.20;99.90;;;;;;5025352;28;20714;-69
2023/12/20 09:41:57;;;;;;;3.73;0.60;;;4.70;99.90;;;;;;5002133;28;20201;-69
2023/12/20 09:44:24;;;;;;;4.43;1.47;;;6.20;99.90;;;;;;5013583;28;20584;-69
2023/12/20 09:46:51;;;;;;;12.03;1.60;;;6.10;99.90;;;;;;5016476;28;20221;-69
2023/12/20 09:49:20;;;;;;;3.43;1.03;;;6.20;99.90;;;;;;5015609;28;20592;-69
2023/12/20 09:51:47;;;;;;;3.70;0.73;;;6.10;99.90;;;;;;5016447;28;20217;-69
2023/12/20 09:54:16;;;;;;;6.27;1.20;;;6.10;99.90;;;;;;4986537;28;20233;-69
2023/12/20 09:56:43;;;;;;;4.43;1.00;;;6.10;99.90;;;;;;4996672;28;20205;-69
2023/12/20 09:59:10;;;;;;;4.07;0.93;;;6.10;99.90;;;;;;5007168;28;20232;-69
2023/12/20 10:01:39;;;;;;;5.83;0.83;;;6.90;99.90;;;;;;5008401;28;20226;-69
2023/12/20 10:04:08;;;;;;;4.47;0.97;;;6.10;99.90;;;;;;5015995;28;20244;-69
2023/12/20 10:06:37;;;;;;;4.27;0.73;;;6.10;99.90;;;;;;5017712;28;20324;-69
2023/12/20 10:09:05;;;;;;;4.13;1.17;;;6.10;99.90;;;;;;4985433;28;20232;-69
2023/12/20 10:11:32;;;;;;;2.87;0.97;;;6.10;99.90;;;;;;5004731;28;20961;-68
2023/12/20 10:14:01;;;;;;;2.53;0.70;;;6.10;99.90;;;;;;5005714;28;20224;-69
2023/12/20 10:16:28;;;;;;;4.37;0.77;;;6.10;99.90;;;;;;5020703;28;20672;-69
2023/12/20 10:18:55;;;;;;;7.83;1.03;;;6.10;99.90;;;;;;5020957;28;20221;-69
2023/12/20 10:21:22;;;;;;;4.77;1.27;;;6.10;99.90;;;;;;5021352;28;20233;-69
2023/12/20 10:23:51;;;;;;;6.07;0.90;;;6.10;99.90;;;;;;4984119;28;20220;-69
2023/12/20 10:26:21;;;;;;;6.83;1.07;;;6.20;99.90;;;;;;5025026;28;20205;-69
2023/12/20 10:28:51;;;;;;;3.70;1.30;;;6.10;99.90;;;;;;5011252;28;20295;-69
2023/12/20 10:31:29;;;;;;;4.10;1.17;;;6.10;99.90;;;;;;5015047;28;20213;-69
2023/12/20 10:33:57;;;;;;;6.27;1.03;;;6.20;99.90;;;;;;5021019;28;20655;-69
2023/12/20 10:36:26;;;;;;;2.43;0.60;;;6.20;99.90;;;;;;4990257;28;20225;-69
2023/12/20 10:38:55;;;;;;;4.70;1.47;;;6.30;99.90;;;;;;5006856;28;20292;-69
2023/12/20 10:41:27;;;;;;;3.40;1.20;;;6.20;99.90;;;;;;4948464;28;21277;-69
2023/12/20 10:43:56;;;;;;;4.10;1.20;;;6.20;99.90;;;;;;5003096;28;21080;-69
2023/12/20 10:46:23;;;;;;;8.57;1.20;;;6.30;99.90;;;;;;5003258;28;20476;-69
2023/12/20 10:48:52;;;;;;;3.53;0.80;;;6.30;99.90;;;;;;5013152;28;20214;-69
2023/12/20 10:51:21;;;;;;;5.27;0.90;;;6.40;99.90;;;;;;5006727;28;24436;-69
2023/12/20 10:53:48;;;;;;;6.90;1.23;;;6.70;99.90;;;;;;5017957;28;20313;-68
2023/12/20 10:56:18;;;;;;;8.70;1.00;;;6.40;99.90;;;;;;4968205;28;20225;-69
2023/12/20 10:58:45;;;;;;;8.90;1.20;;;6.50;99.90;;;;;;5001439;28;20940;-69
2023/12/20 11:01:14;;;;;;;5.37;1.00;;;6.50;99.90;;;;;;5004309;28;20232;-69
2023/12/20 11:03:46;;;;;;;6.27;1.00;;;6.60;99.90;;;;;;5014161;28;20229;-69
2023/12/20 11:06:26;;;;;;;10.37;0.97;;;6.30;99.90;;;;;;5011882;28;20201;-69
2023/12/20 11:09:08;;;;;;;9.60;1.50;;;6.60;99.90;;;;;;4981322;28;20230;-69
2023/12/20 11:11:43;;;;;;;12.80;1.30;;;6.50;99.90;;;;;;4970609;28;20288;-69
2023/12/20 11:14:18;;;;;;;2.53;1.00;;;6.80;99.90;;;;;;4985294;28;20201;-69
2023/12/20 11:16:45;;;;;;;4.53;1.23;;;6.60;99.90;;;;;;4994852;28;20252;-69
2023/12/20 11:19:14;;;;;;;9.67;1.10;;;6.60;99.90;;;;;;5012222;28;20226;-69
2023/12/20 11:21:41;;;;;;;16.80;1.83;;;6.50;99.90;;;;;;5007884;28;20197;-69
2023/12/20 11:24:08;;;;;;;4.40;1.07;;;6.60;99.90;;;;;;5013943;28;20297;-69
2023/12/20 11:26:36;;;;;;;3.77;0.80;;;6.60;99.90;;;;;;4980496;28;20233;-69
2023/12/20 11:29:31;;;;;;;13.40;1.47;;;7.40;99.90;;;;;;4997345;28;21027;-69
2023/12/20 11:31:58;;;;;;;7.63;1.10;;;6.60;99.90;;;;;;4999679;28;20622;-69
2023/12/20 11:34:29;;;;;;;6.37;1.20;;;6.60;99.90;;;;;;5011611;28;20332;-69
2023/12/20 11:37:00;;;;;;;11.47;1.60;;;7.20;99.90;;;;;;5014761;28;20194;-69
2023/12/20 11:39:28;;;;;;;8.87;1.47;;;6.70;99.90;;;;;;5016687;28;20222;-69
2023/12/20 11:41:58;;;;;;;6.67;1.67;;;6.70;99.90;;;;;;4963461;28;20240;-69
2023/12/20 11:44:27;;;;;;;6.40;1.50;;;6.70;99.90;;;;;;5006157;28;20237;-69
2023/12/20 11:46:55;;;;;;;6.63;0.80;;;6.80;99.90;;;;;;4984136;28;20844;-69
2023/12/20 11:49:25;;;;;;;10.40;1.73;;;6.80;99.90;;;;;;4985475;28;20229;-69
2023/12/20 11:51:52;;;;;;;10.47;1.70;;;6.80;99.90;;;;;;5005389;28;20225;-69
2023/12/20 11:54:19;;;;;;;9.37;1.63;;;6.80;99.90;;;;;;5000450;28;20232;-70
2023/12/20 11:56:48;;;;;;;4.37;1.37;;;7.10;99.90;;;;;;4976871;28;20244;-70
2023/12/20 11:59:16;;;;;;;11.33;1.60;;;6.80;99.90;;;;;;4998481;28;20199;-69
2023/12/20 12:01:49;;;;;;;7.20;1.33;;;6.70;99.90;;;;;;4987686;28;20262;-70
2023/12/20 12:04:17;;;;;;;12.83;2.37;;;6.70;99.90;;;;;;4997481;28;20233;-69
2023/12/20 12:06:44;;;;;;;11.70;2.10;;;6.50;99.90;;;;;;4996664;28;20232;-69
2023/12/20 12:09:11;;;;;;;12.53;1.40;;;6.40;99.90;;;;;;5006365;28;20617;-69
2023/12/20 12:11:38;;;;;;;9.90;1.83;;;6.10;99.90;;;;;;4984703;28;20206;-69
2023/12/20 12:14:05;;;;;;;5.07;0.97;;;6.30;99.90;;;;;;4975578;28;20210;-69
2023/12/20 12:16:33;;;;;;;2.80;0.90;;;6.20;99.90;;;;;;4986793;28;20220;-69
2023/12/20 12:19:00;;;;;;;5.27;1.17;;;6.30;99.90;;;;;;4988696;28;20202;-69
2023/12/20 12:21:27;;;;;;;5.70;1.17;;;6.30;99.90;;;;;;5015364;28;20909;-69
2023/12/20 12:23:55;;;;;;;8.10;1.37;;;;;;;;;;5011036;28;20228;-69
2023/12/20 12:26:21;;;;;;;6.17;1.17;;;6.30;99.90;;;;;;5012139;28;20371;-69
2023/12/20 12:28:48;;;;;;;7.40;1.27;;;6.30;99.90;;;;;;4972179;28;20213;-69
2023/12/20 12:31:16;;;;;;;10.50;1.83;;;6.30;99.90;;;;;;4997851;28;20233;-69
2023/12/20 12:33:45;;;;;;;6.13;1.27;;;6.20;99.90;;;;;;4991360;28;20199;-69
2023/12/20 12:36:15;;;;;;;9.40;1.60;;;6.30;99.90;;;;;;5004747;28;20211;-68
2023/12/20 12:38:43;;;;;;;12.83;1.90;;;6.30;99.90;;;;;;5016022;28;20225;-69
2023/12/20 12:41:10;;;;;;;4.00;1.77;;;6.30;99.90;;;;;;5017979;28;20287;-69
2023/12/20 12:43:37;;;;;;;7.07;1.40;;;6.40;99.90;;;;;;4974179;28;20213;-69
2023/12/20 12:46:04;;;;;;;11.93;2.53;;;6.40;99.90;;;;;;5017974;28;20316;-69
2023/12/20 12:48:31;;;;;;;12.27;2.10;;;6.40;99.90;;;;;;4993952;28;20221;-69
2023/12/20 12:51:02;;;;;;;8.60;2.20;;;6.40;99.90;;;;;;4992029;28;20237;-69
2023/12/20 12:53:29;;;;;;;7.47;2.23;;;6.50;99.90;;;;;;5015835;28;20197;-69
2023/12/20 12:55:56;;;;;;;8.03;1.83;;;6.50;99.90;;;;;;5006992;28;20212;-68